Time;durP1;ratioP1;P1;durP2;ratioP2;P2;SDS_P1;SDS_P2;PMS_P1;PMS_P2;Temp;Humidity;BMP_temperature;BMP_pressure;BME280_temperature;BME280_humidity;BME280_pressure;Samples;Min_cycle;Max_cycle;Signal;HPM_P1;HPM_P2
2023/05/15 00:01:24;;;;;;;8.03;4.80;;;;;;;;;;6040859;23;21215;-62
2023/05/15 00:03:53;;;;;;;6.70;4.32;;;;;;;;;;6041936;23;20664;-62
2023/05/15 00:06:22;;;;;;;8.40;4.20;;;;;;;;;;6041960;23;20300;-62
2023/05/15 00:08:51;;;;;;;4.32;4.00;;;;;;;;;;6042684;23;20630;-62
2023/05/15 00:11:22;;;;;;;5.23;4.83;;;;;;;;;;6042155;23;20259;-61
2023/05/15 00:13:51;;;;;;;5.00;4.60;;;;;;;;;;6040425;23;20619;-62
2023/05/15 00:16:19;;;;;;;4.90;4.60;;;;;;;;;;6041316;23;20956;-62
2023/05/15 00:18:47;;;;;;;4.40;4.10;;;;;;;;;;6042198;23;20629;-62
2023/05/15 00:21:15;;;;;;;4.50;4.20;;;;;;;;;;6041958;23;20639;-62
2023/05/15 00:23:46;;;;;;;4.43;4.07;;;;;;;;;;6043162;23;20654;-61
2023/05/15 00:26:15;;;;;;;5.30;4.90;;;;;;;;;;6041429;23;20240;-61
2023/05/15 00:28:44;;;;;;;5.00;4.60;;;;;;;;;;6042959;23;20668;-61
2023/05/15 00:31:13;;;;;;;4.30;4.00;;;;;;;;;;6041725;23;20690;-62
2023/05/15 00:33:41;;;;;;;5.00;4.53;;;;;;;;;;6042145;23;20675;-62
2023/05/15 00:36:11;;;;;;;5.03;4.53;;;;;;;;;;6040451;23;20656;-62
2023/05/15 00:38:39;;;;;;;6.40;4.80;;;;;;;;;;6041072;23;20260;-62
2023/05/15 00:41:08;;;;;;;4.80;4.40;;;;;;;;;;6040135;23;20630;-62
2023/05/15 00:43:39;;;;;;;4.67;4.27;;;;;;;;;;6041918;23;20654;-62
2023/05/15 00:46:08;;;;;;;4.57;4.17;;;;;;;;;;6041573;23;20556;-62
2023/05/15 00:48:36;;;;;;;4.00;3.80;;;;;;;;;;6039752;23;20654;-65
2023/05/15 00:51:05;;;;;;;4.70;4.40;;;;;;;;;;6042526;23;21017;-62
2023/05/15 00:53:33;;;;;;;5.70;4.30;;;;;;;;;;6042260;23;20690;-62
2023/05/15 00:56:03;;;;;;;4.83;4.43;;;;;;;;;;6040821;23;21147;-62
2023/05/15 00:58:32;;;;;;;4.20;3.97;;;;;;;;;;6040859;23;20677;-61
2023/05/15 01:01:02;;;;;;;5.10;4.63;;;;;;;;;;6041369;23;20672;-62
2023/05/15 01:03:30;;;;;;;4.65;4.20;;;;;;;;;;6038589;23;20643;-61
2023/05/15 01:06:01;;;;;;;4.00;3.70;;;;;;;;;;6039300;23;20260;-62
2023/05/15 01:08:36;;;;;;;4.03;3.80;;;;;;;;;;6038426;23;20656;-62
2023/05/15 01:11:08;;;;;;;4.40;4.00;;;;;;;;;;6038434;23;21297;-62
2023/05/15 01:13:36;;;;;;;4.10;3.85;;;;;;;;;;6039632;23;20953;-63
2023/05/15 01:16:08;;;;;;;3.80;3.60;;;;;;;;;;6039437;23;20268;-64
2023/05/15 01:18:36;;;;;;;4.20;3.90;;;;;;;;;;6039637;23;20646;-63
2023/05/15 01:21:23;;;;;;;5.30;4.00;;;;;;;;;;6039359;23;20659;-62
2023/05/15 01:23:59;;;;;;;4.40;4.20;;;;;;;;;;6039544;23;20629;-62
2023/05/15 01:26:45;;;;;;;5.33;4.83;;;;;;;;;;6038006;23;20590;-62
2023/05/15 01:29:18;;;;;;;4.10;3.67;;;;;;;;;;6039781;23;21068;-62
2023/05/15 01:31:51;;;;;;;5.05;4.65;;;;;;;;;;6037765;23;20624;-61
2023/05/15 01:34:21;;;;;;;4.93;4.63;;;;;;;;;;6039833;23;20485;-62
2023/05/15 01:36:52;;;;;;;7.67;5.33;;;;;;;;;;6038845;23;20693;-63
2023/05/15 01:39:22;;;;;;;4.97;4.57;;;;;;;;;;6039580;23;21003;-62
2023/05/15 01:41:53;;;;;;;5.03;4.73;;;;;;;;;;6038587;23;20252;-62
2023/05/15 01:44:27;;;;;;;4.38;4.07;;;;;;;;;;6038863;23;20607;-62
2023/05/15 01:46:56;;;;;;;12.38;4.40;;;;;;;;;;6038277;23;20243;-62
2023/05/15 01:49:27;;;;;;;5.57;5.18;;;;;;;;;;6039289;23;20256;-62
2023/05/15 01:51:59;;;;;;;5.07;4.60;;;;;;;;;;6038244;23;20252;-62
2023/05/15 01:54:28;;;;;;;4.63;4.38;;;;;;;;;;6039101;23;20569;-62
2023/05/15 01:56:56;;;;;;;4.70;4.40;;;;;;;;;;6038338;23;20260;-63
2023/05/15 01:59:27;;;;;;;4.97;4.55;;;;;;;;;;6037395;23;20271;-62
2023/05/15 02:01:57;;;;;;;4.95;4.55;;;;;;;;;;6037934;23;20252;-62
2023/05/15 02:04:26;;;;;;;5.10;4.60;;;;;;;;;;6037626;23;20240;-62
2023/05/15 02:06:55;;;;;;;5.00;4.30;;;;;;;;;;6038960;23;20774;-62
2023/05/15 02:09:24;;;;;;;4.60;4.30;;;;;;;;;;6035466;23;20271;-62
2023/05/15 02:11:52;;;;;;;5.18;4.68;;;;;;;;;;6038819;23;20251;-62
2023/05/15 02:14:21;;;;;;;5.63;5.22;;;;;;;;;;6036726;23;20268;-61
2023/05/15 02:16:51;;;;;;;5.45;4.93;;;;;;;;;;6039427;23;20256;-62
2023/05/15 02:19:19;;;;;;;5.00;4.60;;;;;;;;;;6038894;23;20255;-62
2023/05/15 02:21:48;;;;;;;5.20;4.80;;;;;;;;;;6038783;23;20245;-62
2023/05/15 02:24:16;;;;;;;5.03;4.72;;;;;;;;;;6038852;23;20401;-63
2023/05/15 02:26:48;;;;;;;5.32;4.93;;;;;;;;;;6039786;23;20614;-61
2023/05/15 02:29:20;;;;;;;7.55;4.75;;;;;;;;;;6038842;23;20241;-62
2023/05/15 02:31:56;;;;;;;5.80;5.40;;;;;;;;;;6039549;23;20300;-63
2023/05/15 02:34:27;;;;;;;5.70;5.20;;;;;;;;;;6038744;23;20232;-62
2023/05/15 02:36:58;;;;;;;5.40;5.00;;;;;;;;;;6039248;23;20280;-62
2023/05/15 02:39:27;;;;;;;6.95;6.25;;;;;;;;;;6038987;23;20694;-62
2023/05/15 02:41:57;;;;;;;6.25;5.75;;;;;;;;;;6039567;23;20356;-63
2023/05/15 02:44:26;;;;;;;6.22;5.72;;;;;;;;;;6037732;23;20268;-62
2023/05/15 02:46:56;;;;;;;5.00;4.70;;;;;;;;;;6038869;23;20275;-61
2023/05/15 02:49:24;;;;;;;6.32;5.85;;;;;;;;;;6039171;23;20243;-62
2023/05/15 02:51:52;;;;;;;5.38;5.07;;;;;;;;;;6039554;23;20259;-62
2023/05/15 02:54:21;;;;;;;5.68;5.28;;;;;;;;;;6038937;23;20567;-62
2023/05/15 02:56:50;;;;;;;9.98;6.18;;;;;;;;;;6039120;23;20332;-62
2023/05/15 02:59:18;;;;;;;5.45;5.05;;;;;;;;;;6039285;23;20271;-62
2023/05/15 03:01:47;;;;;;;6.80;6.10;;;;;;;;;;6036728;23;20672;-62
2023/05/15 03:04:16;;;;;;;9.23;5.85;;;;;;;;;;6037711;23;20259;-62
2023/05/15 03:06:45;;;;;;;6.97;6.22;;;;;;;;;;6039369;23;20264;-62
2023/05/15 03:09:13;;;;;;;6.78;5.78;;;;;;;;;;6039028;23;20272;-62
2023/05/15 03:11:41;;;;;;;6.22;5.15;;;;;;;;;;6039205;23;20255;-62
2023/05/15 03:14:10;;;;;;;5.57;5.10;;;;;;;;;;6037642;23;20622;-61
2023/05/15 03:16:38;;;;;;;8.75;5.70;;;;;;;;;;6039509;23;20256;-62
2023/05/15 03:19:06;;;;;;;6.70;6.10;;;;;;;;;;6038330;23;20334;-62
2023/05/15 03:21:36;;;;;;;5.70;5.25;;;;;;;;;;6038831;23;20275;-61
2023/05/15 03:24:04;;;;;;;6.15;5.65;;;;;;;;;;6039252;23;20270;-62
2023/05/15 03:26:32;;;;;;;6.00;5.50;;;;;;;;;;6039436;23;20255;-62
2023/05/15 03:29:01;;;;;;;6.28;5.65;;;;;;;;;;6039186;23;20255;-61
2023/05/15 03:31:30;;;;;;;8.25;6.50;;;;;;;;;;6039166;23;20561;-61
2023/05/15 03:33:58;;;;;;;6.38;5.78;;;;;;;;;;6037000;23;20268;-62
2023/05/15 03:36:26;;;;;;;8.80;7.90;;;;;;;;;;6038692;23;20259;-62
2023/05/15 03:38:56;;;;;;;10.18;7.05;;;;;;;;;;6039635;23;20272;-62
2023/05/15 03:41:24;;;;;;;7.22;6.55;;;;;;;;;;6038120;23;20251;-63
2023/05/15 03:43:53;;;;;;;6.57;5.97;;;;;;;;;;6038794;23;20259;-62
2023/05/15 03:46:21;;;;;;;7.47;6.88;;;;;;;;;;6038965;23;20255;-62
2023/05/15 03:48:50;;;;;;;6.30;5.80;;;;;;;;;;6039690;23;20256;-62
2023/05/15 03:51:18;;;;;;;5.85;5.45;;;;;;;;;;6036754;23;20309;-62
2023/05/15 03:53:46;;;;;;;6.57;5.60;;;;;;;;;;6037559;23;20240;-62
2023/05/15 03:56:16;;;;;;;10.45;6.22;;;;;;;;;;6038887;23;20255;-62
2023/05/15 03:58:45;;;;;;;6.10;5.68;;;;;;;;;;6039709;23;20551;-62
2023/05/15 04:01:13;;;;;;;6.80;6.00;;;;;;;;;;6037670;23;20252;-62
2023/05/15 04:03:41;;;;;;;11.65;6.35;;;;;;;;;;6038020;23;20256;-61
2023/05/15 04:06:09;;;;;;;7.22;6.38;;;;;;;;;;6037470;23;20260;-62
2023/05/15 04:08:38;;;;;;;6.50;5.88;;;;;;;;;;6038845;23;20264;-61
2023/05/15 04:11:06;;;;;;;6.30;5.75;;;;;;;;;;6038364;23;20284;-65
2023/05/15 04:13:35;;;;;;;6.18;5.68;;;;;;;;;;6038904;23;20315;-62
2023/05/15 04:16:04;;;;;;;6.03;5.53;;;;;;;;;;6038813;23;20263;-61
2023/05/15 04:18:32;;;;;;;6.43;5.93;;;;;;;;;;6039581;23;20304;-61
2023/05/15 04:21:00;;;;;;;7.03;6.47;;;;;;;;;;6038193;23;20248;-61
2023/05/15 04:23:28;;;;;;;5.72;5.32;;;;;;;;;;6039013;23;20260;-62
2023/05/15 04:25:57;;;;;;;6.32;5.70;;;;;;;;;;6038600;23;20264;-62
2023/05/15 04:28:25;;;;;;;9.18;7.10;;;;;;;;;;6039382;23;20248;-61
2023/05/15 04:30:54;;;;;;;6.13;5.63;;;;;;;;;;6038786;23;20248;-62
2023/05/15 04:33:23;;;;;;;7.15;6.55;;;;;;;;;;6038019;23;20682;-62
2023/05/15 04:35:51;;;;;;;7.60;6.80;;;;;;;;;;6039082;23;20279;-62
2023/05/15 04:38:19;;;;;;;6.85;6.35;;;;;;;;;;6038709;23;20252;-62
2023/05/15 04:40:48;;;;;;;7.05;6.45;;;;;;;;;;6038334;23;20705;-62
2023/05/15 04:43:16;;;;;;;6.28;5.78;;;;;;;;;;6037784;23;20252;-62
2023/05/15 04:45:44;;;;;;;7.72;7.05;;;;;;;;;;6039231;23;20188;-62
2023/05/15 04:48:14;;;;;;;7.93;6.88;;;;;;;;;;6038554;23;20260;-62
2023/05/15 04:50:42;;;;;;;7.97;6.72;;;;;;;;;;6040376;23;20251;-62
2023/05/15 04:53:10;;;;;;;7.80;7.00;;;;;;;;;;6039700;23;20738;-62
2023/05/15 04:55:38;;;;;;;8.65;7.22;;;;;;;;;;6040626;23;20766;-62
2023/05/15 04:58:06;;;;;;;7.88;7.13;;;;;;;;;;6039772;23;20275;-62
2023/05/15 05:00:35;;;;;;;7.30;6.30;;;;;;;;;;6041553;23;20292;-61
2023/05/15 05:03:03;;;;;;;10.20;7.68;;;;;;;;;;6038464;23;20256;-62
2023/05/15 05:05:33;;;;;;;7.78;7.18;;;;;;;;;;6039543;23;20233;-62
2023/05/15 05:08:01;;;;;;;7.90;7.10;;;;;;;;;;6040496;23;20252;-62
2023/05/15 05:10:29;;;;;;;8.45;7.75;;;;;;;;;;6041265;23;20668;-61
2023/05/15 05:12:58;;;;;;;6.93;6.13;;;;;;;;;;6037195;23;20180;-63
2023/05/15 05:15:26;;;;;;;7.82;7.22;;;;;;;;;;6040750;23;20264;-62
2023/05/15 05:17:54;;;;;;;7.00;6.40;;;;;;;;;;6038259;23;20225;-62
2023/05/15 05:20:22;;;;;;;6.68;6.18;;;;;;;;;;6040604;23;20283;-61
2023/05/15 05:22:52;;;;;;;7.10;6.45;;;;;;;;;;6038909;23;20247;-62
2023/05/15 05:25:20;;;;;;;6.97;6.43;;;;;;;;;;6040557;23;20256;-62
2023/05/15 05:27:48;;;;;;;7.55;6.95;;;;;;;;;;6038546;23;20260;-62
2023/05/15 05:30:17;;;;;;;7.45;6.75;;;;;;;;;;6040105;23;20252;-63
2023/05/15 05:32:45;;;;;;;10.18;6.90;;;;;;;;;;6039297;23;20628;-61
2023/05/15 05:35:13;;;;;;;9.80;6.75;;;;;;;;;;6039925;23;20256;-61
2023/05/15 05:37:42;;;;;;;6.85;6.35;;;;;;;;;;6038304;23;20263;-61
2023/05/15 05:40:12;;;;;;;7.43;6.72;;;;;;;;;;6039142;23;20271;-61
2023/05/15 05:42:40;;;;;;;7.10;6.50;;;;;;;;;;6038111;23;20255;-61
2023/05/15 05:45:08;;;;;;;7.63;6.93;;;;;;;;;;6039270;23;20259;-61
2023/05/15 05:47:37;;;;;;;7.28;6.68;;;;;;;;;;6039381;23;20275;-61
2023/05/15 05:50:05;;;;;;;7.82;7.15;;;;;;;;;;6037527;23;20260;-61
2023/05/15 05:52:33;;;;;;;11.43;7.37;;;;;;;;;;6042306;23;20760;-64
2023/05/15 05:55:02;;;;;;;6.10;5.70;;;;;;;;;;6055779;23;20606;-63
2023/05/15 05:57:31;;;;;;;7.05;6.53;;;;;;;;;;6060731;23;20181;-63
2023/05/15 05:59:59;;;;;;;6.93;6.32;;;;;;;;;;6058999;23;20535;-62
2023/05/15 06:02:27;;;;;;;6.50;6.00;;;;;;;;;;6042040;23;20645;-62
2023/05/15 06:04:56;;;;;;;8.50;5.88;;;;;;;;;;6038645;23;20671;-61
2023/05/15 06:07:24;;;;;;;7.13;6.53;;;;;;;;;;6038829;23;20259;-62
2023/05/15 06:09:52;;;;;;;10.07;7.25;;;;;;;;;;6039081;23;20333;-61
2023/05/15 06:12:21;;;;;;;7.10;6.40;;;;;;;;;;6040267;23;20304;-61
2023/05/15 06:14:50;;;;;;;7.90;5.87;;;;;;;;;;6039090;23;20990;-61
2023/05/15 06:17:18;;;;;;;5.70;5.30;;;;;;;;;;6039099;23;20585;-61
2023/05/15 06:19:47;;;;;;;6.23;5.70;;;;;;;;;;6039843;23;20592;-61
2023/05/15 06:22:15;;;;;;;7.07;6.57;;;;;;;;;;6038507;23;21073;-61
2023/05/15 06:24:43;;;;;;;6.43;5.83;;;;;;;;;;6035992;23;20668;-62
2023/05/15 06:27:11;;;;;;;5.50;5.10;;;;;;;;;;6038467;23;20657;-61
2023/05/15 06:29:39;;;;;;;7.63;6.83;;;;;;;;;;6036466;23;20630;-63
2023/05/15 06:32:09;;;;;;;6.17;5.77;;;;;;;;;;6036103;23;20700;-62
2023/05/15 06:34:37;;;;;;;7.00;6.30;;;;;;;;;;6037570;23;20644;-62
2023/05/15 06:37:06;;;;;;;9.77;6.20;;;;;;;;;;6037578;23;20672;-64
2023/05/15 06:39:35;;;;;;;5.90;5.50;;;;;;;;;;6037781;23;20658;-63
2023/05/15 06:42:03;;;;;;;5.93;5.47;;;;;;;;;;6038002;23;20678;-62
2023/05/15 06:44:32;;;;;;;5.73;5.33;;;;;;;;;;6037031;23;20694;-64
2023/05/15 06:47:00;;;;;;;5.43;5.03;;;;;;;;;;6038851;23;20643;-63
2023/05/15 06:49:29;;;;;;;5.50;5.10;;;;;;;;;;6038202;23;20705;-64
2023/05/15 06:51:57;;;;;;;6.17;5.67;;;;;;;;;;6038296;23;20643;-63
2023/05/15 06:54:26;;;;;;;6.37;5.73;;;;;;;;;;6038191;23;20651;-63
2023/05/15 06:56:54;;;;;;;4.50;4.20;;;;;;;;;;6037109;23;20623;-62
2023/05/15 06:59:22;;;;;;;5.10;4.70;;;;;;;;;;6039655;23;20652;-65
2023/05/15 07:01:50;;;;;;;5.63;4.93;;;;;;;;;;6038920;23;20712;-62
2023/05/15 07:04:19;;;;;;;4.83;4.43;;;;;;;;;;6038605;23;20970;-63
2023/05/15 07:06:48;;;;;;;5.00;4.53;;;;;;;;;;6037921;23;20668;-63
2023/05/15 07:09:16;;;;;;;5.10;4.70;;;;;;;;;;6037607;23;21276;-63
2023/05/15 07:11:44;;;;;;;4.90;4.50;;;;;;;;;;6037065;23;20671;-63
2023/05/15 07:14:13;;;;;;;5.17;4.67;;;;;;;;;;6037336;23;20642;-63
2023/05/15 07:16:41;;;;;;;4.43;4.13;;;;;;;;;;6036469;23;20995;-63
2023/05/15 07:19:09;;;;;;;4.93;4.20;;;;;;;;;;6037445;23;20646;-63
2023/05/15 07:21:40;;;;;;;4.10;3.83;;;;;;;;;;6036210;23;20711;-62
2023/05/15 07:24:09;;;;;;;3.70;3.50;;;;;;;;;;6035884;23;20658;-64
2023/05/15 07:26:37;;;;;;;3.83;3.63;;;;;;;;;;6036162;23;20680;-63
2023/05/15 07:29:06;;;;;;;4.00;3.70;;;;;;;;;;6038986;23;20671;-68
2023/05/15 07:31:34;;;;;;;3.53;3.33;;;;;;;;;;6039293;23;20638;-64
2023/05/15 07:34:02;;;;;;;4.40;4.10;;;;;;;;;;6039149;23;20656;-64
2023/05/15 07:36:31;;;;;;;4.67;4.27;;;;;;;;;;6040174;23;20680;-65
2023/05/15 07:38:59;;;;;;;7.13;4.17;;;;;;;;;;6036931;23;20637;-65
2023/05/15 07:41:29;;;;;;;3.50;3.30;;;;;;;;;;6040340;23;20681;-65
2023/05/15 07:43:58;;;;;;;4.40;4.00;;;;;;;;;;6039218;23;20716;-64
2023/05/15 07:46:26;;;;;;;4.10;3.80;;;;;;;;;;6038140;23;20668;-65
2023/05/15 07:48:54;;;;;;;6.03;3.47;;;;;;;;;;6037479;23;20692;-63
2023/05/15 07:51:22;;;;;;;4.03;3.60;;;;;;;;;;6037677;23;20647;-63
2023/05/15 07:53:51;;;;;;;4.37;4.07;;;;;;;;;;6040237;23;20668;-65
2023/05/15 07:56:19;;;;;;;3.57;3.37;;;;;;;;;;6039745;23;20656;-64
2023/05/15 07:58:49;;;;;;;3.80;3.50;;;;;;;;;;6040478;23;20660;-65
2023/05/15 08:01:17;;;;;;;3.97;3.50;;;;;;;;;;6039430;23;20700;-65
2023/05/15 08:03:45;;;;;;;4.30;4.00;;;;;;;;;;6037614;23;21044;-64
2023/05/15 08:06:13;;;;;;;3.77;3.57;;;;;;;;;;6038652;23;20655;-64
2023/05/15 08:08:42;;;;;;;3.60;3.50;;;;;;;;;;6038940;23;20647;-65
2023/05/15 08:11:10;;;;;;;3.90;3.70;;;;;;;;;;6041397;23;20704;-65
2023/05/15 08:13:38;;;;;;;3.93;3.73;;;;;;;;;;6045961;23;20571;-64
2023/05/15 08:16:08;;;;;;;4.90;4.40;;;;;;;;;;6038753;23;20635;-63
2023/05/15 08:18:36;;;;;;;4.20;4.00;;;;;;;;;;6039164;23;20759;-62
2023/05/15 08:21:05;;;;;;;5.20;4.17;;;;;;;;;;6037448;23;20708;-64
2023/05/15 08:23:33;;;;;;;4.20;3.90;;;;;;;;;;6042912;23;21165;-65
2023/05/15 08:26:01;;;;;;;7.20;5.97;;;;;;;;;;6038695;23;20646;-63
2023/05/15 08:28:29;;;;;;;5.93;5.43;;;;;;;;;;6038679;23;20639;-64
2023/05/15 08:30:58;;;;;;;8.40;5.60;;;;;;;;;;6038543;23;20639;-63
2023/05/15 08:33:27;;;;;;;4.30;4.10;;;;;;;;;;6038899;23;20634;-64
2023/05/15 08:35:55;;;;;;;5.13;4.73;;;;;;;;;;6038203;23;20696;-62
2023/05/15 08:38:24;;;;;;;4.63;4.20;;;;;;;;;;6036024;23;20654;-63
2023/05/15 08:40:53;;;;;;;5.10;4.57;;;;;;;;;;6038896;23;20667;-62
2023/05/15 08:43:22;;;;;;;5.07;4.87;;;;;;;;;;6039746;23;20981;-63
2023/05/15 08:45:51;;;;;;;4.70;4.40;;;;;;;;;;6037474;23;20683;-64
2023/05/15 08:48:19;;;;;;;4.47;4.23;;;;;;;;;;6038119;23;20696;-63
2023/05/15 08:50:49;;;;;;;5.23;4.93;;;;;;;;;;6012728;23;20672;-62
2023/05/15 08:53:18;;;;;;;4.37;4.17;;;;;;;;;;6038562;23;20545;-63
2023/05/15 08:55:46;;;;;;;4.90;4.70;;;;;;;;;;6037124;23;20675;-63
2023/05/15 08:58:15;;;;;;;5.00;4.70;;;;;;;;;;6038457;23;20725;-63
2023/05/15 09:00:44;;;;;;;4.80;4.50;;;;;;;;;;6037097;23;20655;-63
2023/05/15 09:03:14;;;;;;;5.30;5.00;;;;;;;;;;6036738;23;20647;-63
2023/05/15 09:05:43;;;;;;;5.27;4.97;;;;;;;;;;6037492;23;20953;-63
2023/05/15 09:08:12;;;;;;;5.50;4.77;;;;;;;;;;6037163;23;20683;-63
2023/05/15 09:10:41;;;;;;;5.67;5.27;;;;;;;;;;6039070;23;20691;-63
2023/05/15 09:13:09;;;;;;;5.87;5.50;;;;;;;;;;6040577;23;20668;-64
2023/05/15 09:15:38;;;;;;;4.90;4.60;;;;;;;;;;6039805;23;20648;-65
2023/05/15 09:18:06;;;;;;;5.03;4.80;;;;;;;;;;6047501;23;20604;-65
2023/05/15 09:20:35;;;;;;;7.77;7.27;;;;;;;;;;6047896;23;21236;-64
2023/05/15 09:23:04;;;;;;;6.33;6.03;;;;;;;;;;6044634;23;20708;-64
2023/05/15 09:25:36;;;;;;;10.23;5.70;;;;;;;;;;6040711;23;20659;-65
2023/05/15 09:28:04;;;;;;;5.67;5.10;;;;;;;;;;6040359;23;20713;-64
2023/05/15 09:30:33;;;;;;;5.47;5.07;;;;;;;;;;6039959;23;20668;-64
2023/05/15 09:33:02;;;;;;;6.00;5.70;;;;;;;;;;6039298;23;20664;-64
2023/05/15 09:35:34;;;;;;;6.10;5.47;;;;;;;;;;6041064;23;20664;-63
2023/05/15 09:38:03;;;;;;;5.13;4.93;;;;;;;;;;6038688;23;20657;-63
2023/05/15 09:40:32;;;;;;;5.27;5.07;;;;;;;;;;6039886;23;20625;-64
2023/05/15 09:43:03;;;;;;;5.60;5.30;;;;;;;;;;6038272;23;20700;-63
2023/05/15 09:45:31;;;;;;;5.47;5.27;;;;;;;;;;6042388;23;21120;-64
2023/05/15 09:48:01;;;;;;;11.30;10.40;;;;;;;;;;6037890;23;20664;-63
2023/05/15 09:50:33;;;;;;;5.73;5.40;;;;;;;;;;6039604;23;20672;-64
2023/05/15 09:53:01;;;;;;;6.50;6.10;;;;;;;;;;6038578;23;20640;-63
2023/05/15 09:55:32;;;;;;;7.07;5.97;;;;;;;;;;6039302;23;20688;-63
2023/05/15 09:58:11;;;;;;;5.70;5.37;;;;;;;;;;6040278;23;20737;-63
2023/05/15 10:00:40;;;;;;;7.17;6.57;;;;;;;;;;6038590;23;20939;-64
2023/05/15 10:03:09;;;;;;;5.93;5.63;;;;;;;;;;6037625;23;20736;-63
2023/05/15 10:05:37;;;;;;;6.57;6.23;;;;;;;;;;6037146;23;20720;-64
2023/05/15 10:08:06;;;;;;;6.67;6.17;;;;;;;;;;6038185;23;20672;-65
2023/05/15 10:10:34;;;;;;;7.53;7.03;;;;;;;;;;6037734;23;20691;-64
2023/05/15 10:13:04;;;;;;;7.00;6.63;;;;;;;;;;6039200;23;20956;-64
2023/05/15 10:15:34;;;;;;;6.83;6.53;;;;;;;;;;6039126;23;20624;-65
2023/05/15 10:18:04;;;;;;;6.97;6.67;;;;;;;;;;6038463;23;21013;-64
2023/05/15 10:20:35;;;;;;;6.67;6.27;;;;;;;;;;6038071;23;20687;-63
2023/05/15 10:23:04;;;;;;;7.40;7.10;;;;;;;;;;6038711;23;21045;-63
2023/05/15 10:25:34;;;;;;;6.83;6.43;;;;;;;;;;6037573;23;20648;-64
2023/05/15 10:28:03;;;;;;;10.77;6.90;;;;;;;;;;6038423;23;20663;-64
2023/05/15 10:30:33;;;;;;;7.30;6.80;;;;;;;;;;6037429;23;20664;-64
2023/05/15 10:33:02;;;;;;;6.30;6.10;;;;;;;;;;6038760;23;20704;-63
2023/05/15 10:35:30;;;;;;;7.50;7.10;;;;;;;;;;6039047;23;21026;-63
2023/05/15 10:37:59;;;;;;;8.63;8.00;;;;;;;;;;6040217;23;20655;-62
2023/05/15 10:40:28;;;;;;;7.00;6.70;;;;;;;;;;6038591;23;20665;-64
2023/05/15 10:43:00;;;;;;;6.93;6.63;;;;;;;;;;6039183;23;21239;-65
2023/05/15 10:45:29;;;;;;;6.80;6.57;;;;;;;;;;6037128;23;20640;-63
2023/05/15 10:47:59;;;;;;;5.80;5.60;;;;;;;;;;6039981;23;20972;-64
2023/05/15 10:50:27;;;;;;;6.40;6.00;;;;;;;;;;6044125;23;20668;-64
2023/05/15 10:52:56;;;;;;;6.50;6.20;;;;;;;;;;6047769;23;20624;-63
2023/05/15 10:55:24;;;;;;;7.23;6.57;;;;;;;;;;6045668;23;20609;-63
2023/05/15 10:57:53;;;;;;;6.63;6.23;;;;;;;;;;6043423;23;20613;-63
2023/05/15 11:00:25;;;;;;;6.10;5.87;;;;;;;;;;6036178;23;20701;-64
2023/05/15 11:02:55;;;;;;;6.10;5.80;;;;;;;;;;6036155;23;20739;-64
2023/05/15 11:05:25;;;;;;;6.37;6.10;;;;;;;;;;6037516;23;20621;-65
2023/05/15 11:08:12;;;;;;;6.30;6.10;;;;;;;;;;6036177;23;20620;-64
2023/05/15 11:10:41;;;;;;;6.67;6.37;;;;;;;;;;6038708;23;20687;-63
2023/05/15 11:13:10;;;;;;;6.40;6.00;;;;;;;;;;6039441;23;20656;-65
2023/05/15 11:15:42;;;;;;;6.50;6.20;;;;;;;;;;6037892;23;20659;-64
2023/05/15 11:18:10;;;;;;;6.50;5.67;;;;;;;;;;6038129;23;20617;-64
2023/05/15 11:20:41;;;;;;;5.20;5.00;;;;;;;;;;6035580;23;20776;-64
2023/05/15 11:23:10;;;;;;;4.93;4.73;;;;;;;;;;6037740;23;20672;-64
2023/05/15 11:25:39;;;;;;;5.83;5.60;;;;;;;;;;6034228;23;20573;-65
2023/05/15 11:28:21;;;;;;;6.37;5.83;;;;;;;;;;6035576;23;20672;-64
2023/05/15 11:30:51;;;;;;;5.80;5.40;;;;;;;;;;6037090;23;20685;-64
2023/05/15 11:33:20;;;;;;;6.67;5.07;;;;;;;;;;6035226;23;20664;-63
2023/05/15 11:35:57;;;;;;;5.50;5.20;;;;;;;;;;6035684;23;20628;-63
2023/05/15 11:38:26;;;;;;;5.77;5.30;;;;;;;;;;6035775;23;20672;-65
2023/05/15 11:40:57;;;;;;;5.30;5.10;;;;;;;;;;6036179;23;20552;-65
2023/05/15 11:43:26;;;;;;;5.40;5.20;;;;;;;;;;6036500;23;20704;-66
2023/05/15 11:45:56;;;;;;;6.60;6.10;;;;;;;;;;6034992;23;20675;-65
2023/05/15 11:48:25;;;;;;;5.73;5.47;;;;;;;;;;6036382;23;20984;-64
2023/05/15 11:50:55;;;;;;;6.23;5.73;;;;;;;;;;6036217;23;20669;-64
2023/05/15 11:53:23;;;;;;;6.67;6.23;;;;;;;;;;6035880;23;20975;-64
2023/05/15 11:55:53;;;;;;;6.70;6.30;;;;;;;;;;6037412;23;20663;-64
2023/05/15 11:58:22;;;;;;;6.90;6.50;;;;;;;;;;6040416;23;20874;-65
2023/05/15 12:00:51;;;;;;;7.47;6.97;;;;;;;;;;6039791;23;20652;-66
2023/05/15 12:03:22;;;;;;;7.50;7.20;;;;;;;;;;6037991;23;20695;-65
2023/05/15 12:05:52;;;;;;;7.70;7.27;;;;;;;;;;6039264;23;20632;-65
2023/05/15 12:08:21;;;;;;;7.93;7.63;;;;;;;;;;6040699;23;20680;-65
2023/05/15 12:10:50;;;;;;;8.10;7.70;;;;;;;;;;6039128;23;20679;-65
2023/05/15 12:13:19;;;;;;;8.20;7.80;;;;;;;;;;6046950;23;20577;-64
2023/05/15 12:15:47;;;;;;;8.60;8.00;;;;;;;;;;6042161;23;20671;-64
2023/05/15 12:18:16;;;;;;;8.30;7.90;;;;;;;;;;6041832;23;20585;-64
2023/05/15 12:20:45;;;;;;;8.63;8.23;;;;;;;;;;6038320;23;20688;-64
2023/05/15 12:23:15;;;;;;;8.63;8.23;;;;;;;;;;6039762;23;20696;-65
2023/05/15 12:25:46;;;;;;;9.10;8.70;;;;;;;;;;6040157;23;20663;-64
2023/05/15 12:28:15;;;;;;;9.30;8.70;;;;;;;;;;6038668;23;20628;-64
2023/05/15 12:30:43;;;;;;;8.70;8.20;;;;;;;;;;6038274;23;20672;-64
2023/05/15 12:33:11;;;;;;;8.17;7.87;;;;;;;;;;6038655;23;20905;-63
2023/05/15 12:35:42;;;;;;;9.13;8.50;;;;;;;;;;6037350;23;20671;-65
2023/05/15 12:38:15;;;;;;;8.47;8.07;;;;;;;;;;6038638;23;20640;-65
2023/05/15 12:40:46;;;;;;;9.53;8.87;;;;;;;;;;6038805;23;21164;-64
2023/05/15 12:43:14;;;;;;;8.93;8.53;;;;;;;;;;6039362;23;20680;-65
2023/05/15 12:45:43;;;;;;;9.07;8.27;;;;;;;;;;6039690;23;20774;-65
2023/05/15 12:48:14;;;;;;;9.43;8.93;;;;;;;;;;6038750;23;20966;-65
2023/05/15 12:50:44;;;;;;;8.93;8.23;;;;;;;;;;6039030;23;20640;-64
2023/05/15 12:53:15;;;;;;;8.80;8.40;;;;;;;;;;6041597;23;20629;-65
2023/05/15 12:55:46;;;;;;;8.70;8.30;;;;;;;;;;6037052;23;20639;-64
2023/05/15 12:58:17;;;;;;;7.47;6.97;;;;;;;;;;6040442;23;20628;-64
2023/05/15 13:00:46;;;;;;;7.87;7.37;;;;;;;;;;6041108;23;20685;-66
2023/05/15 13:03:15;;;;;;;8.03;7.50;;;;;;;;;;6038307;23;20711;-65
2023/05/15 13:05:44;;;;;;;7.53;6.93;;;;;;;;;;6038052;23;20661;-65
2023/05/15 13:08:16;;;;;;;5.77;5.37;;;;;;;;;;6037050;23;20660;-64
2023/05/15 13:10:46;;;;;;;4.53;4.23;;;;;;;;;;6041543;23;20628;-64
2023/05/15 13:13:14;;;;;;;6.30;4.30;;;;;;;;;;6042393;23;20638;-64
2023/05/15 13:15:43;;;;;;;5.53;5.03;;;;;;;;;;6043867;23;20718;-63
2023/05/15 13:18:12;;;;;;;4.70;4.30;;;;;;;;;;6041200;23;20640;-64
2023/05/15 13:20:41;;;;;;;4.40;4.10;;;;;;;;;;6041569;23;20684;-65
2023/05/15 13:23:10;;;;;;;4.80;4.50;;;;;;;;;;6043509;23;21032;-65
2023/05/15 13:25:38;;;;;;;3.73;3.53;;;;;;;;;;6045223;23;20563;-64
2023/05/15 13:28:09;;;;;;;3.50;3.40;;;;;;;;;;6040579;23;20668;-65
2023/05/15 13:30:40;;;;;;;9.37;3.80;;;;;;;;;;6046128;23;20566;-66
2023/05/15 13:33:09;;;;;;;3.90;3.70;;;;;;;;;;6045347;23;21294;-65
2023/05/15 13:35:37;;;;;;;4.20;3.90;;;;;;;;;;6047011;23;20605;-65
2023/05/15 13:38:06;;;;;;;4.60;4.30;;;;;;;;;;6040722;23;20664;-67
2023/05/15 13:40:36;;;;;;;3.73;3.53;;;;;;;;;;6040544;23;20642;-65
2023/05/15 13:43:05;;;;;;;4.00;3.80;;;;;;;;;;6037122;23;20644;-65
2023/05/15 13:45:35;;;;;;;4.27;4.07;;;;;;;;;;6039957;23;20657;-63
2023/05/15 13:48:03;;;;;;;4.37;3.57;;;;;;;;;;6037521;23;20672;-65
2023/05/15 13:50:32;;;;;;;5.70;4.03;;;;;;;;;;6036406;23;20684;-64
2023/05/15 13:53:00;;;;;;;4.30;4.10;;;;;;;;;;6038717;23;20656;-64
2023/05/15 13:55:28;;;;;;;4.03;3.83;;;;;;;;;;6038005;23;21378;-64
2023/05/15 13:57:57;;;;;;;4.63;3.90;;;;;;;;;;6038713;23;20660;-65
2023/05/15 14:00:25;;;;;;;4.60;4.30;;;;;;;;;;6038648;23;20668;-64
2023/05/15 14:02:55;;;;;;;4.93;3.67;;;;;;;;;;6035218;23;21082;-64
2023/05/15 14:05:23;;;;;;;4.80;4.40;;;;;;;;;;6036868;23;20716;-65
2023/05/15 14:07:52;;;;;;;4.20;3.90;;;;;;;;;;6038286;23;20668;-63
2023/05/15 14:10:20;;;;;;;4.40;4.00;;;;;;;;;;6040342;23;20697;-66
2023/05/15 14:12:48;;;;;;;4.90;4.60;;;;;;;;;;6042871;23;20613;-65
2023/05/15 14:15:17;;;;;;;5.80;5.60;;;;;;;;;;6041014;23;20617;-65
2023/05/15 14:17:47;;;;;;;6.33;6.13;;;;;;;;;;6038649;23;20677;-66
2023/05/15 14:20:17;;;;;;;6.37;6.07;;;;;;;;;;6039609;23;20676;-66
2023/05/15 14:22:45;;;;;;;6.50;6.30;;;;;;;;;;6041377;23;21187;-63
2023/05/15 14:25:13;;;;;;;6.50;6.20;;;;;;;;;;6039239;23;20695;-63
2023/05/15 14:27:41;;;;;;;6.37;6.17;;;;;;;;;;6037768;23;20660;-63
2023/05/15 14:30:10;;;;;;;6.70;6.40;;;;;;;;;;6039133;23;20676;-64
2023/05/15 14:32:38;;;;;;;7.80;7.30;;;;;;;;;;6014008;23;20672;-64
2023/05/15 14:35:07;;;;;;;7.70;7.30;;;;;;;;;;6037227;23;20646;-64
2023/05/15 14:37:37;;;;;;;7.70;7.40;;;;;;;;;;6036927;23;20984;-65
2023/05/15 14:40:06;;;;;;;8.57;8.17;;;;;;;;;;6035405;23;20655;-65
2023/05/15 14:42:35;;;;;;;8.70;8.20;;;;;;;;;;6035562;23;20667;-63
2023/05/15 14:45:03;;;;;;;7.60;7.30;;;;;;;;;;6036150;23;21041;-64
2023/05/15 14:47:32;;;;;;;7.20;7.00;;;;;;;;;;6037874;23;20732;-62
2023/05/15 14:50:00;;;;;;;7.17;6.87;;;;;;;;;;6035864;23;20953;-62
2023/05/15 14:52:28;;;;;;;7.70;7.40;;;;;;;;;;6036450;23;20708;-62
2023/05/15 14:54:58;;;;;;;7.07;6.83;;;;;;;;;;6035979;23;20665;-63